createdAt,value
2023-01-28T00:01:33.270Z,24.70
2023-01-28T00:04:00.905Z,24.70
2023-01-28T00:06:28.847Z,24.70
2023-01-28T00:08:57.089Z,24.60
2023-01-28T00:11:24.697Z,24.60
2023-01-28T00:13:53.271Z,24.60
2023-01-28T00:16:22.602Z,24.60
2023-01-28T00:18:51.820Z,24.50
2023-01-28T00:21:19.920Z,24.50
2023-01-28T00:23:51.418Z,24.50
2023-01-28T00:26:19.406Z,24.50
2023-01-28T00:28:48.236Z,24.40
2023-01-28T00:31:18.463Z,24.40
2023-01-28T00:33:47.174Z,24.40
2023-01-28T00:36:17.130Z,24.40
2023-01-28T00:38:45.093Z,24.40
2023-01-28T00:41:14.791Z,24.30
2023-01-28T00:43:45.552Z,24.30
2023-01-28T00:46:14.182Z,24.30
2023-01-28T00:48:42.979Z,24.30
2023-01-28T00:51:11.985Z,24.20
2023-01-28T00:53:41.384Z,24.20
2023-01-28T00:56:12.437Z,24.20
2023-01-28T00:58:40.203Z,24.20
2023-01-28T01:01:09.455Z,24.20
2023-01-28T01:03:37.110Z,24.20
2023-01-28T01:06:05.399Z,24.10
2023-01-28T01:08:35.967Z,24.10
2023-01-28T01:11:06.016Z,24.10
2023-01-28T01:13:35.215Z,24.10
2023-01-28T01:16:04.574Z,24.10
2023-01-28T01:18:32.234Z,24.10
2023-01-28T01:20:59.881Z,24.00
2023-01-28T01:23:28.001Z,24.00
2023-01-28T01:25:55.960Z,24.00
2023-01-28T01:28:24.983Z,24.00
2023-01-28T01:31:00.656Z,24.00
2023-01-28T01:33:30.491Z,23.90
2023-01-28T01:35:58.772Z,23.90
2023-01-28T01:38:26.642Z,23.90
2023-01-28T01:40:57.890Z,23.90
2023-01-28T01:43:46.989Z,23.90
2023-01-28T01:46:16.768Z,23.80
2023-01-28T01:48:44.665Z,23.80
2023-01-28T01:51:16.253Z,23.80
2023-01-28T01:53:46.216Z,23.80
2023-01-28T01:56:17.575Z,23.80
2023-01-28T01:58:50.357Z,23.80
2023-01-28T02:01:20.219Z,23.70
2023-01-28T02:03:56.298Z,23.70
2023-01-28T02:06:24.467Z,23.70
2023-01-28T02:08:55.423Z,23.70
2023-01-28T02:11:24.730Z,23.70
2023-01-28T02:13:57.312Z,23.60
2023-01-28T02:16:26.444Z,23.60
2023-01-28T02:18:54.201Z,23.60
2023-01-28T02:21:40.995Z,23.60
2023-01-28T02:24:29.349Z,23.60
2023-01-28T02:27:12.701Z,23.60
2023-01-28T02:29:49.707Z,23.50
2023-01-28T02:32:22.521Z,23.50
2023-01-28T02:34:57.460Z,23.50
2023-01-28T02:37:30.450Z,23.50
2023-01-28T02:40:02.121Z,23.50
2023-01-28T02:42:31.649Z,23.50
2023-01-28T02:45:00.951Z,23.50
2023-01-28T02:47:46.150Z,23.40
2023-01-28T02:50:17.383Z,23.40
2023-01-28T02:53:15.955Z,23.40
2023-01-28T02:55:52.343Z,23.40
2023-01-28T02:58:27.865Z,23.40
2023-01-28T03:01:03.835Z,23.30
2023-01-28T03:03:41.375Z,23.30
2023-01-28T03:06:13.452Z,23.30
2023-01-28T03:09:05.052Z,23.30
2023-01-28T03:11:54.602Z,23.30
2023-01-28T03:14:42.163Z,23.20
2023-01-28T03:17:37.321Z,23.20
2023-01-28T03:20:23.395Z,23.20
2023-01-28T03:23:11.754Z,23.20
2023-01-28T03:26:00.460Z,23.20
2023-01-28T03:28:48.079Z,23.10
2023-01-28T03:31:36.268Z,23.10
2023-01-28T03:34:24.345Z,23.10
2023-01-28T03:36:53.327Z,23.10
2023-01-28T03:39:24.157Z,23.10
2023-01-28T03:42:00.199Z,23.10
2023-01-28T03:44:45.915Z,23.10
2023-01-28T03:47:13.923Z,23.00
2023-01-28T03:49:45.523Z,23.00
2023-01-28T03:52:13.995Z,23.00
2023-01-28T03:54:41.595Z,23.00
2023-01-28T03:57:09.511Z,23.00
2023-01-28T03:59:37.101Z,23.00
2023-01-28T04:02:06.275Z,23.00
2023-01-28T04:04:33.953Z,23.00
2023-01-28T04:07:02.908Z,22.90
2023-01-28T04:09:30.493Z,22.90
2023-01-28T04:11:58.166Z,22.90
2023-01-28T04:14:25.775Z,22.90
2023-01-28T04:16:54.902Z,22.90
2023-01-28T04:19:23.315Z,22.90
2023-01-28T04:21:53.891Z,22.90
2023-01-28T04:24:23.482Z,22.90
2023-01-28T04:26:51.184Z,22.90
2023-01-28T04:29:18.789Z,22.80
2023-01-28T04:31:46.427Z,22.80
2023-01-28T04:34:14.170Z,22.80
2023-01-28T04:36:41.778Z,22.80
2023-01-28T04:39:09.373Z,22.80
2023-01-28T04:41:38.482Z,22.80
2023-01-28T04:44:06.073Z,22.80
2023-01-28T04:46:33.785Z,22.80
2023-01-28T04:49:02.095Z,22.70
2023-01-28T04:51:29.789Z,22.70
2023-01-28T04:53:57.403Z,22.70
2023-01-28T04:56:25.035Z,22.70
2023-01-28T04:58:54.001Z,22.70
2023-01-28T05:01:21.658Z,22.70
2023-01-28T05:03:49.309Z,22.70
2023-01-28T05:06:17.076Z,22.70
2023-01-28T05:08:46.225Z,22.60
2023-01-28T05:11:14.418Z,22.60
2023-01-28T05:13:42.046Z,22.60
2023-01-28T05:16:11.016Z,22.60
2023-01-28T05:18:38.710Z,22.60
2023-01-28T05:21:06.813Z,22.60
2023-01-28T05:23:34.700Z,22.60
2023-01-28T05:26:02.333Z,22.60
2023-01-28T05:28:30.223Z,22.60
2023-01-28T05:30:57.908Z,22.50
2023-01-28T05:33:26.843Z,22.50
2023-01-28T05:35:54.459Z,22.50
2023-01-28T05:38:22.059Z,22.50
2023-01-28T05:40:49.843Z,22.50
2023-01-28T05:43:17.781Z,22.50
2023-01-28T05:45:45.644Z,22.50
2023-01-28T05:48:13.272Z,22.50
2023-01-28T05:50:42.252Z,22.50
2023-01-28T05:53:10.597Z,22.50
2023-01-28T05:55:38.213Z,22.50
2023-01-28T05:58:05.847Z,22.50
2023-01-28T06:00:33.540Z,22.50
2023-01-28T06:03:01.215Z,22.50
2023-01-28T06:05:28.853Z,22.50
2023-01-28T06:07:57.873Z,22.50
2023-01-28T06:10:25.578Z,22.50
2023-01-28T06:12:53.192Z,22.50
2023-01-28T06:15:21.352Z,22.50
2023-01-28T06:17:49.478Z,22.50
2023-01-28T06:20:18.106Z,22.50
2023-01-28T06:22:46.299Z,22.50
2023-01-28T06:25:15.499Z,22.50
2023-01-28T06:27:43.230Z,22.50
2023-01-28T06:30:11.953Z,22.50
2023-01-28T06:32:40.424Z,22.50
2023-01-28T06:35:10.130Z,22.50
2023-01-28T06:37:37.822Z,22.60
2023-01-28T06:40:06.397Z,22.60
2023-01-28T06:42:35.465Z,22.60
2023-01-28T06:45:03.094Z,22.60
2023-01-28T06:47:30.780Z,22.60
2023-01-28T06:49:58.375Z,22.60
2023-01-28T06:52:26.007Z,22.60
2023-01-28T06:54:53.585Z,22.60
2023-01-28T06:57:21.215Z,22.60
2023-01-28T06:59:50.244Z,22.60
2023-01-28T07:02:17.872Z,22.60
2023-01-28T07:04:45.507Z,22.60
2023-01-28T07:07:13.092Z,22.60
2023-01-28T07:09:40.700Z,22.60
2023-01-28T07:12:08.461Z,22.70
2023-01-28T07:14:36.140Z,22.70
2023-01-28T07:17:05.354Z,22.70
2023-01-28T07:19:33.183Z,22.70
2023-01-28T07:22:03.063Z,22.70
2023-01-28T07:24:31.275Z,22.70
2023-01-28T07:26:59.027Z,22.70
2023-01-28T07:29:27.672Z,22.70
2023-01-28T07:31:55.376Z,22.80
2023-01-28T07:34:24.875Z,22.80
2023-01-28T07:36:52.526Z,22.80
2023-01-28T07:39:20.123Z,22.80
2023-01-28T07:41:47.884Z,22.80
2023-01-28T07:44:15.539Z,22.80
2023-01-28T07:46:43.181Z,22.80
2023-01-28T07:49:10.910Z,22.80
2023-01-28T07:51:39.998Z,22.90
2023-01-28T07:54:07.637Z,22.90
2023-01-28T07:56:35.297Z,22.90
2023-01-28T07:59:03.387Z,22.90
2023-01-28T08:01:31.327Z,22.90
2023-01-28T08:03:59.037Z,22.90
2023-01-28T08:06:26.665Z,22.90
2023-01-28T08:08:55.937Z,22.90
2023-01-28T08:11:24.245Z,23.00
2023-01-28T08:13:51.836Z,23.00
2023-01-28T08:16:19.624Z,23.00
2023-01-28T08:18:47.269Z,23.00
2023-01-28T08:21:14.844Z,23.00
2023-01-28T08:23:42.451Z,23.10
2023-01-28T08:26:11.392Z,23.10
2023-01-28T08:28:39.237Z,23.10
2023-01-28T08:31:06.966Z,23.10
2023-01-28T08:33:34.718Z,23.10
2023-01-28T08:36:03.860Z,23.10
2023-01-28T08:38:31.698Z,23.10
2023-01-28T08:40:59.919Z,23.10
2023-01-28T08:43:28.964Z,23.20
2023-01-28T08:45:56.546Z,23.20
2023-01-28T08:48:24.431Z,23.20
2023-01-28T08:50:52.141Z,23.20
2023-01-28T08:53:21.086Z,23.20
2023-01-28T08:55:48.796Z,23.20
2023-01-28T08:58:18.079Z,23.20
2023-01-28T09:00:48.248Z,23.20
2023-01-28T09:03:16.038Z,23.20
2023-01-28T09:05:43.933Z,23.20
2023-01-28T09:08:13.316Z,23.30
2023-01-28T09:10:42.017Z,23.30
2023-01-28T09:13:11.383Z,23.30
2023-01-28T09:15:39.304Z,23.30
2023-01-28T09:18:08.425Z,23.30
2023-01-28T09:20:36.342Z,23.30
2023-01-28T09:23:03.987Z,23.30
2023-01-28T09:25:32.004Z,23.30
2023-01-28T09:27:59.937Z,23.30
2023-01-28T09:30:27.852Z,23.40
2023-01-28T09:32:58.096Z,23.40
2023-01-28T09:35:27.117Z,23.40
2023-01-28T09:37:58.333Z,23.40
2023-01-28T09:40:36.529Z,23.40
2023-01-28T09:43:20.876Z,23.40
2023-01-28T09:45:50.006Z,23.40
2023-01-28T09:48:21.637Z,23.40
2023-01-28T09:50:53.488Z,23.40
2023-01-28T09:53:24.551Z,23.50
2023-01-28T09:55:56.333Z,23.50
2023-01-28T09:58:24.199Z,23.50
2023-01-28T10:01:00.488Z,23.50
2023-01-28T10:03:38.314Z,23.50
2023-01-28T10:06:18.474Z,23.50
2023-01-28T10:09:05.576Z,23.60
2023-01-28T10:11:44.557Z,23.60
2023-01-28T10:14:17.778Z,23.60
2023-01-28T10:16:51.842Z,23.60
2023-01-28T10:19:24.424Z,23.60
2023-01-28T10:21:58.308Z,23.60
2023-01-28T10:24:32.567Z,23.60
2023-01-28T10:27:00.981Z,23.60
2023-01-28T10:29:30.982Z,23.70
2023-01-28T10:32:04.681Z,23.70
2023-01-28T10:34:32.692Z,23.70
2023-01-28T10:37:01.834Z,23.70
2023-01-28T10:39:30.076Z,23.70
2023-01-28T10:41:58.824Z,23.70
2023-01-28T10:44:35.773Z,23.70
2023-01-28T10:47:10.594Z,23.80
2023-01-28T10:49:44.951Z,23.80
2023-01-28T10:52:15.194Z,23.80
2023-01-28T10:54:42.845Z,23.80
2023-01-28T10:57:14.033Z,23.80
2023-01-28T10:59:42.841Z,23.80
2023-01-28T11:02:27.230Z,23.80
2023-01-28T11:05:09.018Z,23.80
2023-01-28T11:07:38.022Z,23.80
2023-01-28T11:10:27.603Z,23.90
2023-01-28T11:12:59.266Z,23.90
2023-01-28T11:15:27.309Z,23.90
2023-01-28T11:17:58.679Z,23.90
2023-01-28T11:20:29.514Z,23.90
2023-01-28T11:22:59.075Z,23.90
2023-01-28T11:25:31.914Z,23.90
2023-01-28T11:28:01.598Z,23.90
2023-01-28T11:30:32.545Z,24.00
2023-01-28T11:33:08.482Z,24.00
2023-01-28T11:35:36.208Z,24.00
2023-01-28T11:38:18.346Z,24.00
2023-01-28T11:40:51.167Z,24.00
2023-01-28T11:43:18.805Z,24.00
2023-01-28T11:45:56.667Z,24.00
2023-01-28T11:48:36.683Z,24.00
2023-01-28T11:51:08.472Z,24.00
2023-01-28T11:54:01.870Z,24.00
2023-01-28T11:56:43.201Z,24.00
2023-01-28T11:59:26.709Z,24.10
2023-01-28T12:02:02.824Z,24.10
2023-01-28T12:04:58.671Z,24.10
2023-01-28T12:07:40.157Z,24.10
2023-01-28T12:10:21.000Z,24.10
2023-01-28T12:13:03.795Z,24.10
2023-01-28T12:16:02.561Z,24.10
2023-01-28T12:18:46.826Z,24.10
2023-01-28T12:21:26.952Z,24.10
2023-01-28T12:24:10.562Z,24.10
2023-01-28T12:26:49.174Z,24.20
2023-01-28T12:29:27.671Z,24.20
2023-01-28T12:32:07.533Z,24.20
2023-01-28T12:35:08.830Z,24.20
2023-01-28T12:37:48.512Z,24.20
2023-01-28T12:40:34.824Z,24.20
2023-01-28T12:43:14.097Z,24.20
2023-01-28T12:45:46.099Z,24.20
2023-01-28T12:48:18.851Z,24.20
2023-01-28T12:50:52.903Z,24.20
2023-01-28T12:53:26.245Z,24.20
2023-01-28T12:55:57.518Z,24.20
2023-01-28T12:58:37.769Z,24.20
2023-01-28T13:01:10.433Z,24.20
2023-01-28T13:03:44.800Z,24.30
2023-01-28T13:06:18.167Z,24.20
2023-01-28T13:08:45.797Z,24.30
2023-01-28T13:11:18.100Z,24.30
2023-01-28T13:13:47.812Z,24.30
2023-01-28T13:16:15.700Z,24.30
2023-01-28T13:18:46.471Z,24.30
2023-01-28T13:21:17.305Z,24.30
2023-01-28T13:23:47.908Z,24.30
2023-01-28T13:26:38.390Z,24.30
2023-01-28T13:29:20.789Z,24.30
2023-01-28T13:31:52.393Z,24.30
2023-01-28T13:34:38.043Z,24.40
2023-01-28T13:37:18.062Z,24.30
2023-01-28T13:39:50.975Z,24.40
2023-01-28T13:42:28.149Z,24.40
2023-01-28T13:45:10.363Z,24.40
2023-01-28T13:47:39.377Z,24.40
2023-01-28T13:50:14.903Z,24.40
2023-01-28T13:52:48.085Z,24.40
2023-01-28T13:55:37.353Z,24.40
2023-01-28T13:58:37.711Z,24.40
2023-01-28T14:01:41.238Z,24.40
2023-01-28T14:04:40.317Z,24.40
2023-01-28T14:07:22.085Z,24.40
2023-01-28T14:10:15.575Z,24.50
2023-01-28T14:13:14.943Z,24.40
2023-01-28T14:15:56.452Z,24.50
2023-01-28T14:18:30.726Z,24.50
2023-01-28T14:21:02.320Z,24.50
2023-01-28T14:23:32.301Z,24.50
2023-01-28T14:26:12.678Z,24.50
2023-01-28T14:28:48.275Z,24.50
2023-01-28T14:31:22.796Z,24.50
2023-01-28T14:33:51.913Z,24.50
2023-01-28T14:36:20.210Z,24.50
2023-01-28T14:38:48.700Z,24.50
2023-01-28T14:41:28.590Z,24.50
2023-01-28T14:43:57.745Z,24.50
2023-01-28T14:46:36.042Z,24.50
2023-01-28T14:49:22.820Z,24.50
2023-01-28T14:52:15.442Z,24.50
2023-01-28T14:54:54.053Z,24.50
2023-01-28T14:57:42.675Z,24.50
2023-01-28T15:00:23.781Z,24.50
2023-01-28T15:02:51.789Z,24.50
2023-01-28T15:05:22.984Z,24.50
2023-01-28T15:07:51.709Z,24.50
2023-01-28T15:10:22.620Z,24.50
2023-01-28T15:12:55.216Z,24.50
2023-01-28T15:15:30.919Z,24.50
2023-01-28T15:18:05.651Z,24.50
2023-01-28T15:20:36.721Z,24.50
2023-01-28T15:23:10.372Z,24.50
2023-01-28T15:25:39.952Z,24.50
2023-01-28T15:28:17.305Z,24.50
2023-01-28T15:30:47.176Z,24.50
2023-01-28T15:33:20.754Z,24.50
2023-01-28T15:35:52.044Z,24.50
2023-01-28T15:38:21.974Z,24.50
2023-01-28T15:40:57.649Z,24.50
2023-01-28T15:43:32.717Z,24.50
2023-01-28T15:46:05.757Z,24.50
2023-01-28T15:48:36.229Z,24.50
2023-01-28T15:51:12.484Z,24.50
2023-01-28T15:53:47.625Z,24.50
2023-01-28T15:56:17.312Z,24.50
2023-01-28T15:58:46.362Z,24.50
2023-01-28T16:01:17.132Z,24.50
2023-01-28T16:03:46.226Z,24.50
2023-01-28T16:06:18.721Z,24.50
2023-01-28T16:08:52.962Z,24.50
2023-01-28T16:11:27.843Z,24.50
2023-01-28T16:13:56.448Z,24.50
2023-01-28T16:16:33.086Z,24.50
2023-01-28T16:19:03.715Z,24.50
2023-01-28T16:21:34.916Z,24.50
2023-01-28T16:24:04.976Z,24.50
2023-01-28T16:26:34.278Z,24.50
2023-01-28T16:29:12.794Z,24.50
2023-01-28T16:31:40.490Z,24.50
2023-01-28T16:34:10.045Z,24.50
2023-01-28T16:36:39.169Z,24.50
2023-01-28T16:39:06.847Z,24.50
2023-01-28T16:41:39.146Z,24.50
2023-01-28T16:44:07.210Z,24.50
2023-01-28T16:46:35.067Z,24.50
2023-01-28T16:49:03.069Z,24.50
2023-01-28T16:51:30.842Z,24.50
2023-01-28T16:54:00.139Z,24.50
2023-01-28T16:56:44.529Z,24.50
2023-01-28T16:59:14.922Z,24.50
2023-01-28T17:01:42.594Z,24.50
2023-01-28T17:04:12.609Z,24.50
2023-01-28T17:06:42.745Z,24.50
2023-01-28T17:09:13.116Z,24.50
2023-01-28T17:11:41.156Z,24.50
2023-01-28T17:14:09.272Z,24.50
2023-01-28T17:16:37.083Z,24.50
2023-01-28T17:19:04.831Z,24.50
2023-01-28T17:21:32.493Z,24.50
2023-01-28T17:24:01.267Z,24.50
2023-01-28T17:26:30.266Z,24.50
2023-01-28T17:28:58.277Z,24.50
2023-01-28T17:31:26.567Z,24.50
2023-01-28T17:33:55.443Z,24.50
2023-01-28T17:36:23.648Z,24.50
2023-01-28T17:38:51.471Z,24.50
2023-01-28T17:41:19.864Z,24.50
2023-01-28T17:43:52.656Z,24.50
2023-01-28T17:46:21.432Z,24.50
2023-01-28T17:48:49.223Z,24.50
2023-01-28T17:51:18.674Z,24.50
2023-01-28T17:53:47.283Z,24.50
2023-01-28T17:56:17.479Z,24.50
2023-01-28T17:58:45.218Z,24.50
2023-01-28T18:01:14.219Z,24.50
2023-01-28T18:03:41.856Z,24.50
2023-01-28T18:06:09.502Z,24.50
2023-01-28T18:08:37.107Z,24.50
2023-01-28T18:11:08.778Z,24.50
2023-01-28T18:13:36.704Z,24.50
2023-01-28T18:16:05.299Z,24.50
2023-01-28T18:18:34.397Z,24.50
2023-01-28T18:21:03.560Z,24.50
2023-01-28T18:23:32.014Z,24.50
2023-01-28T18:26:00.872Z,24.50
2023-01-28T18:28:29.050Z,24.50
2023-01-28T18:30:56.928Z,24.50
2023-01-28T18:33:24.741Z,24.50
2023-01-28T18:35:53.710Z,24.40
2023-01-28T18:38:21.308Z,24.40
2023-01-28T18:40:49.001Z,24.40
2023-01-28T18:43:16.582Z,24.50
2023-01-28T18:45:45.774Z,24.40
2023-01-28T18:48:13.419Z,24.40
2023-01-28T18:50:41.095Z,24.40
2023-01-28T18:53:10.173Z,24.40
2023-01-28T18:55:37.804Z,24.40
2023-01-28T18:58:05.403Z,24.40
2023-01-28T19:00:33.172Z,24.40
2023-01-28T19:03:02.211Z,24.40
2023-01-28T19:05:30.274Z,24.40
2023-01-28T19:07:58.777Z,24.40
2023-01-28T19:10:27.816Z,24.40
2023-01-28T19:12:55.452Z,24.40
2023-01-28T19:15:23.183Z,24.40
2023-01-28T19:17:50.900Z,24.40
2023-01-28T19:20:19.398Z,24.40
2023-01-28T19:22:47.428Z,24.40
2023-01-28T19:25:16.055Z,24.40
2023-01-28T19:27:49.369Z,24.40
2023-01-28T19:30:19.885Z,24.40
2023-01-28T19:32:47.562Z,24.40
2023-01-28T19:35:15.615Z,24.40
2023-01-28T19:37:43.385Z,24.50
2023-01-28T19:40:12.398Z,24.50
2023-01-28T19:42:40.377Z,24.50
2023-01-28T19:45:10.357Z,24.50
2023-01-28T19:47:37.965Z,24.50
2023-01-28T19:50:06.649Z,24.50
2023-01-28T19:52:34.268Z,24.50
2023-01-28T19:55:01.985Z,24.50
2023-01-28T19:57:29.768Z,24.50
2023-01-28T19:59:57.653Z,24.50
2023-01-28T20:02:27.711Z,24.50
2023-01-28T20:05:00.928Z,24.50
2023-01-28T20:07:28.913Z,24.50
2023-01-28T20:09:56.511Z,24.50
2023-01-28T20:12:24.330Z,24.50
2023-01-28T20:14:51.984Z,24.50
2023-01-28T20:17:20.507Z,24.50
2023-01-28T20:19:49.820Z,24.50
2023-01-28T20:22:17.435Z,24.50
2023-01-28T20:24:45.036Z,24.60
2023-01-28T20:27:12.695Z,24.60
2023-01-28T20:29:40.599Z,24.60
2023-01-28T20:32:16.559Z,24.60
2023-01-28T20:34:46.644Z,24.60
2023-01-28T20:37:15.600Z,24.60
2023-01-28T20:39:43.669Z,24.60
2023-01-28T20:42:13.212Z,24.60
2023-01-28T20:44:41.316Z,24.60
2023-01-28T20:47:09.212Z,24.60
2023-01-28T20:49:36.814Z,24.60
2023-01-28T20:52:05.926Z,24.60
2023-01-28T20:54:34.911Z,24.60
2023-01-28T20:57:02.516Z,24.70
2023-01-28T20:59:31.784Z,24.70
2023-01-28T21:02:00.668Z,24.70
2023-01-28T21:04:28.340Z,24.70
2023-01-28T21:06:55.975Z,24.70
2023-01-28T21:09:25.474Z,24.70
2023-01-28T21:11:54.547Z,24.70
2023-01-28T21:14:22.298Z,24.70
2023-01-28T21:16:52.986Z,24.70
2023-01-28T21:19:20.792Z,24.70
2023-01-28T21:21:48.456Z,24.70
2023-01-28T21:24:16.107Z,24.70
2023-01-28T21:26:43.742Z,24.70
2023-01-28T21:29:14.593Z,24.70
2023-01-28T21:31:42.657Z,24.70
2023-01-28T21:34:10.327Z,24.70
2023-01-28T21:36:38.046Z,24.70
2023-01-28T21:39:06.421Z,24.70
2023-01-28T21:41:34.029Z,24.70
2023-01-28T21:44:01.700Z,24.70
2023-01-28T21:46:33.686Z,24.70
2023-01-28T21:49:02.975Z,24.70
2023-01-28T21:51:39.249Z,24.70
2023-01-28T21:54:08.875Z,24.70
2023-01-28T21:56:36.529Z,24.80
2023-01-28T21:59:22.193Z,24.70
2023-01-28T22:01:51.298Z,24.70
2023-01-28T22:04:19.015Z,24.70
2023-01-28T22:06:46.899Z,24.70
2023-01-28T22:09:14.556Z,24.80
2023-01-28T22:11:43.462Z,24.80
2023-01-28T22:14:12.024Z,24.80
2023-01-28T22:16:39.742Z,24.80
2023-01-28T22:19:08.974Z,24.80
2023-01-28T22:21:41.008Z,24.80
2023-01-28T22:24:11.326Z,24.80
2023-01-28T22:26:39.179Z,24.80
2023-01-28T22:29:07.560Z,24.80
2023-01-28T22:31:35.358Z,24.80
2023-01-28T22:34:03.186Z,24.80
2023-01-28T22:36:33.421Z,24.80
2023-01-28T22:39:02.198Z,24.80
2023-01-28T22:41:30.019Z,24.80
2023-01-28T22:43:57.851Z,24.70
2023-01-28T22:46:26.089Z,24.70
2023-01-28T22:48:54.171Z,24.70
2023-01-28T22:51:24.173Z,24.70
2023-01-28T22:53:53.852Z,24.70
2023-01-28T22:56:24.519Z,24.70
2023-01-28T22:58:55.834Z,24.70
2023-01-28T23:01:23.776Z,24.70
2023-01-28T23:03:52.325Z,24.70
2023-01-28T23:06:21.783Z,24.70
2023-01-28T23:08:49.794Z,24.70
2023-01-28T23:11:25.240Z,24.70
2023-01-28T23:14:11.842Z,24.70
2023-01-28T23:16:57.213Z,24.60
2023-01-28T23:19:42.237Z,24.60
2023-01-28T23:22:34.368Z,24.60
2023-01-28T23:25:01.999Z,24.60
2023-01-28T23:27:31.058Z,24.50
2023-01-28T23:29:58.698Z,24.50
2023-01-28T23:32:27.155Z,24.50
2023-01-28T23:34:54.827Z,24.50
2023-01-28T23:37:23.091Z,24.50
2023-01-28T23:39:50.673Z,24.50
2023-01-28T23:42:20.674Z,24.40
2023-01-28T23:44:49.620Z,24.40
2023-01-28T23:47:17.351Z,24.40
2023-01-28T23:49:45.218Z,24.40
2023-01-28T23:52:12.868Z,24.40
2023-01-28T23:54:40.858Z,24.30
2023-01-28T23:57:08.532Z,24.30
2023-01-28T23:59:36.629Z,24.30
